sensor_id;sensor_type;location;lat;lon;timestamp;pressure;altitude;pressure_sealevel;temperature;humidity
26489;BME280;14169;43.684;10.484;2022-09-20T00:03:35;101397.59;;;18.84;100.00
26489;BME280;14169;43.684;10.484;2022-09-20T00:06:01;101403.97;;;18.80;100.00
26489;BME280;14169;43.684;10.484;2022-09-20T00:08:26;101400.47;;;18.79;100.00
26489;BME280;14169;43.684;10.484;2022-09-20T00:10:56;101400.47;;;18.79;100.00
26489;BME280;14169;43.684;10.484;2022-09-20T00:13:21;101398.69;;;18.80;100.00
26489;BME280;14169;43.684;10.484;2022-09-20T00:15:46;101397.06;;;18.77;100.00
26489;BME280;14169;43.684;10.484;2022-09-20T00:18:12;101398.38;;;18.70;100.00
26489;BME280;14169;43.684;10.484;2022-09-20T00:20:47;101405.66;;;18.65;100.00
26489;BME280;14169;43.684;10.484;2022-09-20T00:23:12;101408.50;;;18.62;100.00
26489;BME280;14169;43.684;10.484;2022-09-20T00:25:38;101406.84;;;18.60;100.00
26489;BME280;14169;43.684;10.484;2022-09-20T00:28:03;101408.72;;;18.58;100.00
26489;BME280;14169;43.684;10.484;2022-09-20T00:30:28;101412.03;;;18.61;100.00
26489;BME280;14169;43.684;10.484;2022-09-20T00:32:55;101399.19;;;18.55;100.00
26489;BME280;14169;43.684;10.484;2022-09-20T00:35:20;101413.81;;;18.61;100.00
26489;BME280;14169;43.684;10.484;2022-09-20T00:37:45;101399.63;;;18.63;100.00
26489;BME280;14169;43.684;10.484;2022-09-20T00:40:12;101400.47;;;18.64;100.00
26489;BME280;14169;43.684;10.484;2022-09-20T00:42:38;101395.97;;;18.66;100.00
26489;BME280;14169;43.684;10.484;2022-09-20T00:45:04;101395.88;;;18.67;100.00
26489;BME280;14169;43.684;10.484;2022-09-20T00:49:57;101388.47;;;18.74;100.00
26489;BME280;14169;43.684;10.484;2022-09-20T00:52:24;101387.53;;;18.75;100.00
26489;BME280;14169;43.684;10.484;2022-09-20T00:54:50;101379.34;;;18.79;100.00
26489;BME280;14169;43.684;10.484;2022-09-20T00:57:16;101384.41;;;18.84;100.00
26489;BME280;14169;43.684;10.484;2022-09-20T00:59:42;101376.19;;;18.88;100.00
26489;BME280;14169;43.684;10.484;2022-09-20T01:02:12;101381.31;;;18.91;100.00
26489;BME280;14169;43.684;10.484;2022-09-20T01:04:40;101383.19;;;18.89;100.00
26489;BME280;14169;43.684;10.484;2022-09-20T01:07:06;101378.59;;;18.93;100.00
26489;BME280;14169;43.684;10.484;2022-09-20T01:09:33;101379.53;;;18.92;100.00
26489;BME280;14169;43.684;10.484;2022-09-20T01:12:00;101373.22;;;18.94;100.00
26489;BME280;14169;43.684;10.484;2022-09-20T01:14:27;101368.78;;;18.95;100.00
26489;BME280;14169;43.684;10.484;2022-09-20T01:16:53;101377.47;;;18.97;100.00
26489;BME280;14169;43.684;10.484;2022-09-20T01:19:27;101368.69;;;18.96;100.00
26489;BME280;14169;43.684;10.484;2022-09-20T01:21:55;101377.81;;;18.91;100.00
26489;BME280;14169;43.684;10.484;2022-09-20T01:29:45;101385.78;;;18.42;100.00
26489;BME280;14169;43.684;10.484;2022-09-20T01:32:13;101387.31;;;18.31;100.00
26489;BME280;14169;43.684;10.484;2022-09-20T01:34:44;101385.13;;;18.22;100.00
26489;BME280;14169;43.684;10.484;2022-09-20T01:37:26;101391.59;;;18.16;100.00
26489;BME280;14169;43.684;10.484;2022-09-20T01:42:36;101388.28;;;17.96;100.00
26489;BME280;14169;43.684;10.484;2022-09-20T01:50:19;101384.81;;;17.78;100.00
26489;BME280;14169;43.684;10.484;2022-09-20T02:21:37;101386.28;;;17.66;100.00
26489;BME280;14169;43.684;10.484;2022-09-20T02:27:01;101384.97;;;17.41;100.00
26489;BME280;14169;43.684;10.484;2022-09-20T02:29:48;101384.91;;;17.24;100.00
26489;BME280;14169;43.684;10.484;2022-09-20T02:38:27;101383.16;;;16.89;100.00
26489;BME280;14169;43.684;10.484;2022-09-20T02:51:24;101379.16;;;16.61;100.00
26489;BME280;14169;43.684;10.484;2022-09-20T03:12:48;101358.13;;;16.04;100.00
26489;BME280;14169;43.684;10.484;2022-09-20T03:20:32;101347.16;;;15.94;100.00
26489;BME280;14169;43.684;10.484;2022-09-20T03:23:08;101351.56;;;15.94;100.00
26489;BME280;14169;43.684;10.484;2022-09-20T03:33:24;101358.94;;;15.86;100.00
26489;BME280;14169;43.684;10.484;2022-09-20T03:46:25;101353.69;;;15.66;100.00
26489;BME280;14169;43.684;10.484;2022-09-20T03:54:09;101355.13;;;15.53;100.00
26489;BME280;14169;43.684;10.484;2022-09-20T04:12:00;101363.22;;;15.05;100.00
26489;BME280;14169;43.684;10.484;2022-09-20T04:19:37;101362.06;;;14.90;100.00
26489;BME280;14169;43.684;10.484;2022-09-20T04:22:06;101372.88;;;14.83;100.00
26489;BME280;14169;43.684;10.484;2022-09-20T04:32:45;101374.88;;;14.76;100.00
26489;BME280;14169;43.684;10.484;2022-09-20T04:37:59;101372.25;;;14.76;100.00
26489;BME280;14169;43.684;10.484;2022-09-20T04:43:26;101378.28;;;14.78;100.00
26489;BME280;14169;43.684;10.484;2022-09-20T04:54:02;101374.25;;;14.70;100.00
26489;BME280;14169;43.684;10.484;2022-09-20T05:08:56;101407.13;;;14.57;100.00
26489;BME280;14169;43.684;10.484;2022-09-20T05:12:10;101413.25;;;14.56;100.00
26489;BME280;14169;43.684;10.484;2022-09-20T05:27:28;101422.19;;;14.73;100.00
26489;BME280;14169;43.684;10.484;2022-09-20T05:30:41;101413.25;;;14.79;100.00
26489;BME280;14169;43.684;10.484;2022-09-20T05:40:17;101420.47;;;15.17;100.00
26489;BME280;14169;43.684;10.484;2022-09-20T05:50:43;101428.28;;;15.82;100.00
26489;BME280;14169;43.684;10.484;2022-09-20T06:01:29;101441.69;;;16.36;100.00
26489;BME280;14169;43.684;10.484;2022-09-20T06:04:08;101440.44;;;16.45;100.00
26489;BME280;14169;43.684;10.484;2022-09-20T06:07:01;101441.69;;;16.56;100.00
26489;BME280;14169;43.684;10.484;2022-09-20T06:16:57;101452.56;;;16.67;100.00
26489;BME280;14169;43.684;10.484;2022-09-20T06:22:10;101468.72;;;16.78;100.00
26489;BME280;14169;43.684;10.484;2022-09-20T06:25:24;101473.97;;;16.78;100.00
26489;BME280;14169;43.684;10.484;2022-09-20T06:27:27;101467.50;;;16.85;100.00
26489;BME280;14169;43.684;10.484;2022-09-20T06:29:56;101472.06;;;16.82;100.00
26489;BME280;14169;43.684;10.484;2022-09-20T06:32:23;101469.50;;;16.80;100.00
26489;BME280;14169;43.684;10.484;2022-09-20T06:34:49;101476.47;;;16.81;100.00
26489;BME280;14169;43.684;10.484;2022-09-20T06:37:18;101467.78;;;16.79;100.00
26489;BME280;14169;43.684;10.484;2022-09-20T06:43:07;101460.88;;;16.96;100.00
26489;BME280;14169;43.684;10.484;2022-09-20T06:45:36;101466.56;;;17.05;100.00
26489;BME280;14169;43.684;10.484;2022-09-20T06:48:01;101463.94;;;17.05;100.00
26489;BME280;14169;43.684;10.484;2022-09-20T06:50:27;101466.97;;;17.15;100.00
26489;BME280;14169;43.684;10.484;2022-09-20T06:52:52;101469.31;;;17.21;100.00
26489;BME280;14169;43.684;10.484;2022-09-20T06:55:20;101475.59;;;17.37;100.00
26489;BME280;14169;43.684;10.484;2022-09-20T06:57:46;101462.47;;;17.54;100.00
26489;BME280;14169;43.684;10.484;2022-09-20T07:00:12;101467.91;;;17.68;100.00
26489;BME280;14169;43.684;10.484;2022-09-20T07:02:39;101476.31;;;17.76;100.00
26489;BME280;14169;43.684;10.484;2022-09-20T07:05:05;101480.19;;;17.86;100.00
26489;BME280;14169;43.684;10.484;2022-09-20T07:07:31;101484.84;;;17.98;100.00
26489;BME280;14169;43.684;10.484;2022-09-20T07:09:56;101483.81;;;18.01;100.00
26489;BME280;14169;43.684;10.484;2022-09-20T07:12:22;101489.81;;;18.04;100.00
26489;BME280;14169;43.684;10.484;2022-09-20T07:14:48;101485.00;;;18.12;100.00
26489;BME280;14169;43.684;10.484;2022-09-20T07:17:14;101487.38;;;18.17;100.00
26489;BME280;14169;43.684;10.484;2022-09-20T07:19:40;101486.19;;;18.22;100.00
26489;BME280;14169;43.684;10.484;2022-09-20T07:22:05;101482.72;;;18.39;100.00
26489;BME280;14169;43.684;10.484;2022-09-20T07:24:31;101484.38;;;18.41;100.00
26489;BME280;14169;43.684;10.484;2022-09-20T07:27:00;101483.31;;;18.61;100.00
26489;BME280;14169;43.684;10.484;2022-09-20T07:29:26;101485.19;;;18.75;100.00
26489;BME280;14169;43.684;10.484;2022-09-20T07:31:52;101485.06;;;18.93;100.00
26489;BME280;14169;43.684;10.484;2022-09-20T07:34:17;101488.53;;;19.11;100.00
26489;BME280;14169;43.684;10.484;2022-09-20T07:36:44;101488.34;;;19.29;100.00
26489;BME280;14169;43.684;10.484;2022-09-20T07:39:10;101487.91;;;19.53;100.00
26489;BME280;14169;43.684;10.484;2022-09-20T07:41:35;101491.31;;;19.84;100.00
26489;BME280;14169;43.684;10.484;2022-09-20T07:44:00;101483.97;;;20.05;100.00
26489;BME280;14169;43.684;10.484;2022-09-20T07:46:46;101488.34;;;20.20;100.00
26489;BME280;14169;43.684;10.484;2022-09-20T07:49:12;101493.28;;;20.40;100.00
26489;BME280;14169;43.684;10.484;2022-09-20T07:51:37;101494.91;;;20.57;100.00
26489;BME280;14169;43.684;10.484;2022-09-20T07:54:03;101496.66;;;20.72;100.00
26489;BME280;14169;43.684;10.484;2022-09-20T07:56:29;101498.19;;;20.76;100.00
26489;BME280;14169;43.684;10.484;2022-09-20T07:58:54;101494.66;;;20.89;100.00
26489;BME280;14169;43.684;10.484;2022-09-20T08:01:20;101495.66;;;21.15;100.00
26489;BME280;14169;43.684;10.484;2022-09-20T08:03:47;101508.97;;;21.42;100.00
26489;BME280;14169;43.684;10.484;2022-09-20T08:06:12;101502.31;;;21.49;100.00
26489;BME280;14169;43.684;10.484;2022-09-20T08:08:44;101507.19;;;21.69;99.05
26489;BME280;14169;43.684;10.484;2022-09-20T08:11:14;101497.91;;;21.88;93.76
26489;BME280;14169;43.684;10.484;2022-09-20T08:13:47;101502.72;;;22.09;90.39
26489;BME280;14169;43.684;10.484;2022-09-20T08:16:12;101499.91;;;22.24;83.96
26489;BME280;14169;43.684;10.484;2022-09-20T08:18:38;101505.84;;;22.40;78.84
26489;BME280;14169;43.684;10.484;2022-09-20T08:21:04;101501.63;;;22.63;77.70
26489;BME280;14169;43.684;10.484;2022-09-20T08:23:32;101504.97;;;22.78;75.05
26489;BME280;14169;43.684;10.484;2022-09-20T08:25:58;101505.84;;;22.78;71.06
26489;BME280;14169;43.684;10.484;2022-09-20T08:28:23;101507.31;;;22.82;69.03
26489;BME280;14169;43.684;10.484;2022-09-20T08:30:48;101510.13;;;22.93;70.07
26489;BME280;14169;43.684;10.484;2022-09-20T08:33:13;101503.81;;;23.07;70.05
26489;BME280;14169;43.684;10.484;2022-09-20T08:35:39;101509.34;;;23.04;65.62
26489;BME280;14169;43.684;10.484;2022-09-20T08:38:04;101515.38;;;23.18;64.21
26489;BME280;14169;43.684;10.484;2022-09-20T08:40:31;101515.34;;;23.31;62.24
26489;BME280;14169;43.684;10.484;2022-09-20T08:42:57;101502.16;;;23.29;57.33
26489;BME280;14169;43.684;10.484;2022-09-20T08:45:23;101508.84;;;23.35;55.74
26489;BME280;14169;43.684;10.484;2022-09-20T08:47:54;101512.88;;;23.28;51.82
26489;BME280;14169;43.684;10.484;2022-09-20T08:50:20;101515.09;;;23.34;50.57
26489;BME280;14169;43.684;10.484;2022-09-20T08:52:47;101515.34;;;23.54;51.19
26489;BME280;14169;43.684;10.484;2022-09-20T08:55:15;101525.28;;;23.76;51.98
26489;BME280;14169;43.684;10.484;2022-09-20T08:57:40;101516.72;;;23.84;53.24
26489;BME280;14169;43.684;10.484;2022-09-20T09:00:09;101521.56;;;23.79;53.98
26489;BME280;14169;43.684;10.484;2022-09-20T09:02:41;101516.56;;;23.74;55.25
26489;BME280;14169;43.684;10.484;2022-09-20T09:05:11;101505.81;;;23.76;55.17
26489;BME280;14169;43.684;10.484;2022-09-20T09:07:49;101519.06;;;23.88;53.86
26489;BME280;14169;43.684;10.484;2022-09-20T09:10:14;101521.59;;;23.90;51.77
26489;BME280;14169;43.684;10.484;2022-09-20T09:12:41;101521.19;;;24.07;53.23
26489;BME280;14169;43.684;10.484;2022-09-20T09:15:23;101521.47;;;24.15;53.76
26489;BME280;14169;43.684;10.484;2022-09-20T09:17:52;101528.97;;;24.21;54.41
26489;BME280;14169;43.684;10.484;2022-09-20T09:20:19;101523.97;;;24.40;56.34
26489;BME280;14169;43.684;10.484;2022-09-20T09:22:48;101524.94;;;24.50;54.26
26489;BME280;14169;43.684;10.484;2022-09-20T09:25:25;101524.00;;;24.62;55.68
26489;BME280;14169;43.684;10.484;2022-09-20T09:33:13;101528.63;;;24.82;49.76
26489;BME280;14169;43.684;10.484;2022-09-20T09:35:38;101524.03;;;25.06;50.78
26489;BME280;14169;43.684;10.484;2022-09-20T09:38:03;101519.66;;;25.16;47.66
26489;BME280;14169;43.684;10.484;2022-09-20T09:40:29;101524.69;;;25.53;51.41
26489;BME280;14169;43.684;10.484;2022-09-20T09:42:59;101521.06;;;25.65;48.42
26489;BME280;14169;43.684;10.484;2022-09-20T09:45:34;101522.31;;;25.81;47.75
26489;BME280;14169;43.684;10.484;2022-09-20T09:48:15;101524.31;;;25.68;45.63
26489;BME280;14169;43.684;10.484;2022-09-20T09:50:41;101514.00;;;25.95;46.67
26489;BME280;14169;43.684;10.484;2022-09-20T09:53:17;101512.41;;;26.25;47.49
26489;BME280;14169;43.684;10.484;2022-09-20T09:58:16;101505.94;;;26.48;44.93
26489;BME280;14169;43.684;10.484;2022-09-20T10:00:48;101509.34;;;26.50;43.15
26489;BME280;14169;43.684;10.484;2022-09-20T10:18:52;101488.13;;;27.28;37.47
26489;BME280;14169;43.684;10.484;2022-09-20T10:21:29;101493.44;;;27.09;36.90
26489;BME280;14169;43.684;10.484;2022-09-20T10:36:51;101480.84;;;27.87;34.60
26489;BME280;14169;43.684;10.484;2022-09-20T10:39:32;101482.84;;;27.76;34.65
26489;BME280;14169;43.684;10.484;2022-09-20T10:44:49;101485.91;;;28.28;35.92
26489;BME280;14169;43.684;10.484;2022-09-20T10:47:58;101479.41;;;28.40;36.03
26489;BME280;14169;43.684;10.484;2022-09-20T10:53:06;101475.00;;;28.39;34.76
26489;BME280;14169;43.684;10.484;2022-09-20T11:08:22;101469.41;;;29.06;33.39
26489;BME280;14169;43.684;10.484;2022-09-20T11:10:52;101466.22;;;29.20;33.91
26489;BME280;14169;43.684;10.484;2022-09-20T11:16:13;101467.91;;;29.39;33.03
26489;BME280;14169;43.684;10.484;2022-09-20T11:18:42;101455.75;;;29.62;32.72
26489;BME280;14169;43.684;10.484;2022-09-20T11:21:13;101455.06;;;29.60;32.40
26489;BME280;14169;43.684;10.484;2022-09-20T11:23:44;101461.28;;;29.78;32.60
26489;BME280;14169;43.684;10.484;2022-09-20T11:28:51;101459.19;;;29.90;31.56
26489;BME280;14169;43.684;10.484;2022-09-20T11:31:23;101454.81;;;29.89;32.47
26489;BME280;14169;43.684;10.484;2022-09-20T11:36:41;101457.91;;;30.20;32.19
26489;BME280;14169;43.684;10.484;2022-09-20T11:41:48;101448.63;;;30.40;31.06
26489;BME280;14169;43.684;10.484;2022-09-20T11:44:14;101445.44;;;30.19;30.18
26489;BME280;14169;43.684;10.484;2022-09-20T11:49:19;101435.19;;;30.40;30.47
26489;BME280;14169;43.684;10.484;2022-09-20T11:56:47;101433.50;;;31.22;28.65
26489;BME280;14169;43.684;10.484;2022-09-20T11:59:25;101429.28;;;31.12;27.92
26489;BME280;14169;43.684;10.484;2022-09-20T12:01:53;101427.09;;;30.73;28.67
26489;BME280;14169;43.684;10.484;2022-09-20T12:04:23;101428.13;;;30.39;28.31
26489;BME280;14169;43.684;10.484;2022-09-20T12:07:00;101419.94;;;30.82;29.33
26489;BME280;14169;43.684;10.484;2022-09-20T12:09:33;101418.84;;;31.17;28.62
26489;BME280;14169;43.684;10.484;2022-09-20T12:12:07;101403.59;;;31.41;27.60
26489;BME280;14169;43.684;10.484;2022-09-20T12:14:38;101412.84;;;31.39;27.81
26489;BME280;14169;43.684;10.484;2022-09-20T12:17:04;101408.81;;;31.35;27.63
26489;BME280;14169;43.684;10.484;2022-09-20T12:24:24;101395.16;;;31.76;27.17
26489;BME280;14169;43.684;10.484;2022-09-20T12:26:52;101398.22;;;31.65;26.62
26489;BME280;14169;43.684;10.484;2022-09-20T12:31:49;101390.72;;;32.32;26.36
26489;BME280;14169;43.684;10.484;2022-09-20T12:36:43;101383.25;;;32.81;26.06
26489;BME280;14169;43.684;10.484;2022-09-20T12:46:49;101373.81;;;33.30;25.21
26489;BME280;14169;43.684;10.484;2022-09-20T12:52:02;101375.69;;;33.38;24.41
26489;BME280;14169;43.684;10.484;2022-09-20T12:54:50;101378.97;;;33.48;24.88
26489;BME280;14169;43.684;10.484;2022-09-20T12:57:17;101372.28;;;33.58;24.86
26489;BME280;14169;43.684;10.484;2022-09-20T12:59:53;101368.19;;;33.99;23.80
26489;BME280;14169;43.684;10.484;2022-09-20T13:05:28;101357.25;;;34.22;24.92
26489;BME280;14169;43.684;10.484;2022-09-20T13:07:54;101359.69;;;34.17;23.87
26489;BME280;14169;43.684;10.484;2022-09-20T13:10:33;101360.19;;;34.35;24.24
26489;BME280;14169;43.684;10.484;2022-09-20T13:13:03;101356.56;;;34.64;24.30
26489;BME280;14169;43.684;10.484;2022-09-20T13:15:29;101347.19;;;34.95;24.02
26489;BME280;14169;43.684;10.484;2022-09-20T13:17:58;101351.56;;;34.96;23.80
26489;BME280;14169;43.684;10.484;2022-09-20T13:20:26;101348.31;;;35.08;23.62
26489;BME280;14169;43.684;10.484;2022-09-20T13:22:58;101344.00;;;34.92;23.12
26489;BME280;14169;43.684;10.484;2022-09-20T13:25:24;101344.53;;;34.66;23.76
26489;BME280;14169;43.684;10.484;2022-09-20T13:27:53;101334.59;;;34.88;23.66
26489;BME280;14169;43.684;10.484;2022-09-20T13:30:22;101343.44;;;34.96;23.77
26489;BME280;14169;43.684;10.484;2022-09-20T13:32:48;101343.97;;;35.07;23.22
26489;BME280;14169;43.684;10.484;2022-09-20T13:35:18;101333.41;;;35.60;23.11
26489;BME280;14169;43.684;10.484;2022-09-20T13:37:55;101333.91;;;35.98;23.27
26489;BME280;14169;43.684;10.484;2022-09-20T13:43:04;101334.53;;;36.34;22.45
26489;BME280;14169;43.684;10.484;2022-09-20T13:45:30;101335.38;;;36.41;22.41
26489;BME280;14169;43.684;10.484;2022-09-20T13:47:57;101326.66;;;36.12;22.93
26489;BME280;14169;43.684;10.484;2022-09-20T13:52:50;101319.00;;;36.22;22.25
26489;BME280;14169;43.684;10.484;2022-09-20T13:55:19;101319.53;;;36.45;22.65
26489;BME280;14169;43.684;10.484;2022-09-20T13:57:45;101318.06;;;36.42;22.15
26489;BME280;14169;43.684;10.484;2022-09-20T14:00:12;101317.59;;;36.73;22.58
26489;BME280;14169;43.684;10.484;2022-09-20T14:02:38;101318.63;;;36.25;21.70
26489;BME280;14169;43.684;10.484;2022-09-20T14:05:04;101319.63;;;35.62;22.45
26489;BME280;14169;43.684;10.484;2022-09-20T14:07:31;101318.25;;;35.24;22.20
26489;BME280;14169;43.684;10.484;2022-09-20T14:09:57;101322.38;;;35.20;23.20
26489;BME280;14169;43.684;10.484;2022-09-20T14:12:24;101320.97;;;35.24;22.64
26489;BME280;14169;43.684;10.484;2022-09-20T14:14:50;101325.88;;;34.92;23.05
26489;BME280;14169;43.684;10.484;2022-09-20T14:17:19;101322.53;;;35.12;22.67
26489;BME280;14169;43.684;10.484;2022-09-20T14:19:46;101321.69;;;35.53;22.80
26489;BME280;14169;43.684;10.484;2022-09-20T14:22:21;101322.97;;;35.57;23.31
26489;BME280;14169;43.684;10.484;2022-09-20T14:24:58;101318.03;;;36.02;23.22
26489;BME280;14169;43.684;10.484;2022-09-20T14:27:24;101313.06;;;36.46;23.30
26489;BME280;14169;43.684;10.484;2022-09-20T14:29:50;101309.03;;;36.35;21.92
26489;BME280;14169;43.684;10.484;2022-09-20T14:34:41;101304.81;;;36.67;23.91
26489;BME280;14169;43.684;10.484;2022-09-20T14:37:50;101304.34;;;36.63;23.91
26489;BME280;14169;43.684;10.484;2022-09-20T14:40:13;101297.81;;;36.45;25.43
26489;BME280;14169;43.684;10.484;2022-09-20T14:42:41;101299.00;;;36.29;25.75
26489;BME280;14169;43.684;10.484;2022-09-20T14:45:53;101301.13;;;36.00;25.73
26489;BME280;14169;43.684;10.484;2022-09-20T14:51:07;101297.81;;;36.04;26.22
26489;BME280;14169;43.684;10.484;2022-09-20T14:55:35;101297.50;;;35.58;26.19
26489;BME280;14169;43.684;10.484;2022-09-20T14:58:05;101291.13;;;35.72;27.29
26489;BME280;14169;43.684;10.484;2022-09-20T15:00:44;101296.16;;;35.41;27.06
26489;BME280;14169;43.684;10.484;2022-09-20T15:03:10;101290.53;;;35.43;27.50
26489;BME280;14169;43.684;10.484;2022-09-20T15:05:38;101290.16;;;35.52;27.29
26489;BME280;14169;43.684;10.484;2022-09-20T15:08:03;101294.72;;;35.45;27.39
26489;BME280;14169;43.684;10.484;2022-09-20T15:10:35;101295.53;;;34.61;27.98
26489;BME280;14169;43.684;10.484;2022-09-20T15:13:00;101297.66;;;34.66;28.80
26489;BME280;14169;43.684;10.484;2022-09-20T15:15:25;101286.25;;;34.70;28.67
26489;BME280;14169;43.684;10.484;2022-09-20T15:17:50;101292.16;;;34.09;29.53
26489;BME280;14169;43.684;10.484;2022-09-20T15:20:17;101304.09;;;34.14;29.28
26489;BME280;14169;43.684;10.484;2022-09-20T15:22:44;101295.47;;;34.40;29.07
26489;BME280;14169;43.684;10.484;2022-09-20T15:25:13;101300.94;;;34.11;29.17
26489;BME280;14169;43.684;10.484;2022-09-20T15:27:40;101300.34;;;33.86;29.28
26489;BME280;14169;43.684;10.484;2022-09-20T15:30:07;101299.63;;;34.07;29.40
26489;BME280;14169;43.684;10.484;2022-09-20T15:32:33;101306.44;;;34.03;28.72
26489;BME280;14169;43.684;10.484;2022-09-20T15:34:58;101306.34;;;34.11;28.89
26489;BME280;14169;43.684;10.484;2022-09-20T15:37:23;101306.88;;;33.92;28.95
26489;BME280;14169;43.684;10.484;2022-09-20T15:39:48;101302.41;;;33.99;29.43
26489;BME280;14169;43.684;10.484;2022-09-20T15:42:15;101306.97;;;34.13;28.86
26489;BME280;14169;43.684;10.484;2022-09-20T15:44:40;101304.16;;;33.77;29.13
26489;BME280;14169;43.684;10.484;2022-09-20T15:47:05;101301.16;;;33.58;29.20
26489;BME280;14169;43.684;10.484;2022-09-20T15:49:31;101305.28;;;33.08;29.71
26489;BME280;14169;43.684;10.484;2022-09-20T15:51:57;101302.22;;;32.58;30.41
26489;BME280;14169;43.684;10.484;2022-09-20T15:54:22;101301.16;;;32.67;30.82
26489;BME280;14169;43.684;10.484;2022-09-20T15:56:47;101300.19;;;32.60;30.22
26489;BME280;14169;43.684;10.484;2022-09-20T15:59:14;101298.78;;;31.95;30.90
26489;BME280;14169;43.684;10.484;2022-09-20T16:01:43;101300.19;;;31.18;32.15
26489;BME280;14169;43.684;10.484;2022-09-20T16:04:10;101298.88;;;30.98;33.01
26489;BME280;14169;43.684;10.484;2022-09-20T16:06:36;101286.91;;;31.01;33.14
26489;BME280;14169;43.684;10.484;2022-09-20T16:09:02;101295.66;;;31.19;33.32
26489;BME280;14169;43.684;10.484;2022-09-20T16:11:28;101295.00;;;31.49;32.87
26489;BME280;14169;43.684;10.484;2022-09-20T16:13:53;101295.47;;;31.52;32.93
26489;BME280;14169;43.684;10.484;2022-09-20T16:16:19;101296.50;;;31.51;32.79
26489;BME280;14169;43.684;10.484;2022-09-20T16:18:45;101295.47;;;31.52;32.76
26489;BME280;14169;43.684;10.484;2022-09-20T16:21:29;101302.19;;;31.24;32.76
26489;BME280;14169;43.684;10.484;2022-09-20T16:23:55;101293.97;;;31.26;33.23
26489;BME280;14169;43.684;10.484;2022-09-20T16:26:21;101294.13;;;31.32;34.22
26489;BME280;14169;43.684;10.484;2022-09-20T16:28:47;101295.47;;;31.20;35.32
26489;BME280;14169;43.684;10.484;2022-09-20T16:33:58;101295.81;;;30.85;36.82
26489;BME280;14169;43.684;10.484;2022-09-20T16:36:24;101295.75;;;30.69;37.66
26489;BME280;14169;43.684;10.484;2022-09-20T16:38:50;101291.63;;;30.41;38.71
26489;BME280;14169;43.684;10.484;2022-09-20T16:41:15;101300.91;;;30.12;40.28
26489;BME280;14169;43.684;10.484;2022-09-20T16:43:40;101295.63;;;29.95;41.33
26489;BME280;14169;43.684;10.484;2022-09-20T16:46:06;101299.38;;;29.59;42.17
26489;BME280;14169;43.684;10.484;2022-09-20T16:48:31;101300.53;;;29.30;43.45
26489;BME280;14169;43.684;10.484;2022-09-20T16:50:57;101302.69;;;29.09;43.96
26489;BME280;14169;43.684;10.484;2022-09-20T16:53:26;101298.63;;;28.88;45.01
26489;BME280;14169;43.684;10.484;2022-09-20T16:55:51;101302.31;;;28.60;46.34
26489;BME280;14169;43.684;10.484;2022-09-20T16:58:24;101303.59;;;28.38;47.69
26489;BME280;14169;43.684;10.484;2022-09-20T17:00:50;101297.50;;;28.09;48.83
26489;BME280;14169;43.684;10.484;2022-09-20T17:03:15;101297.69;;;27.51;51.41
26489;BME280;14169;43.684;10.484;2022-09-20T17:05:40;101295.88;;;26.95;55.31
26489;BME280;14169;43.684;10.484;2022-09-20T17:08:06;101299.88;;;26.60;58.52
26489;BME280;14169;43.684;10.484;2022-09-20T17:10:33;101306.25;;;26.29;61.48
26489;BME280;14169;43.684;10.484;2022-09-20T17:12:58;101312.19;;;26.02;63.72
26489;BME280;14169;43.684;10.484;2022-09-20T17:15:23;101314.56;;;25.75;66.60
26489;BME280;14169;43.684;10.484;2022-09-20T17:17:49;101309.22;;;25.55;70.06
26489;BME280;14169;43.684;10.484;2022-09-20T17:20:14;101317.22;;;25.34;72.16
26489;BME280;14169;43.684;10.484;2022-09-20T17:22:39;101319.03;;;25.13;74.68
26489;BME280;14169;43.684;10.484;2022-09-20T17:25:05;101319.94;;;25.02;77.25
26489;BME280;14169;43.684;10.484;2022-09-20T17:27:31;101316.44;;;24.80;80.11
26489;BME280;14169;43.684;10.484;2022-09-20T17:29:56;101319.25;;;24.67;83.34
26489;BME280;14169;43.684;10.484;2022-09-20T17:32:21;101327.16;;;24.58;85.67
26489;BME280;14169;43.684;10.484;2022-09-20T17:34:47;101323.94;;;24.43;88.64
26489;BME280;14169;43.684;10.484;2022-09-20T17:37:12;101324.53;;;24.35;90.55
26489;BME280;14169;43.684;10.484;2022-09-20T17:39:37;101323.53;;;24.25;92.45
26489;BME280;14169;43.684;10.484;2022-09-20T17:42:04;101322.47;;;24.17;94.44
26489;BME280;14169;43.684;10.484;2022-09-20T17:44:30;101325.00;;;24.07;96.61
26489;BME280;14169;43.684;10.484;2022-09-20T17:46:59;101332.03;;;23.97;98.11
26489;BME280;14169;43.684;10.484;2022-09-20T17:49:24;101332.50;;;23.91;100.00
26489;BME280;14169;43.684;10.484;2022-09-20T17:51:52;101335.75;;;23.84;100.00
26489;BME280;14169;43.684;10.484;2022-09-20T17:54:18;101335.50;;;23.76;100.00
26489;BME280;14169;43.684;10.484;2022-09-20T17:56:44;101339.09;;;23.64;100.00
26489;BME280;14169;43.684;10.484;2022-09-20T17:59:10;101336.50;;;23.51;100.00
26489;BME280;14169;43.684;10.484;2022-09-20T18:01:36;101342.63;;;23.40;100.00
26489;BME280;14169;43.684;10.484;2022-09-20T18:04:02;101337.06;;;23.32;100.00
26489;BME280;14169;43.684;10.484;2022-09-20T18:06:29;101346.47;;;23.25;100.00
26489;BME280;14169;43.684;10.484;2022-09-20T18:09:02;101364.69;;;23.19;100.00
26489;BME280;14169;43.684;10.484;2022-09-20T18:13:57;101368.28;;;22.94;100.00
26489;BME280;14169;43.684;10.484;2022-09-20T18:16:22;101377.97;;;22.95;100.00